Time;durP1;ratioP1;P1;durP2;ratioP2;P2;SDS_P1;SDS_P2;PMS_P1;PMS_P2;Temp;Humidity;BMP_temperature;BMP_pressure;BME280_temperature;BME280_humidity;BME280_pressure;Samples;Min_cycle;Max_cycle;Signal;HPM_P1;HPM_P2
2022/03/19 00:01:03;;;;;;;34.30;19.67;;;14.40;64.40;;;;;;12937846;23;20248;-81
2022/03/19 00:06:06;;;;;;;31.13;17.33;;;14.20;64.40;;;;;;12917061;23;20179;-81
2022/03/19 00:11:09;;;;;;;63.53;31.07;;;14.20;64.60;;;;;;12919016;23;20217;-81
2022/03/19 00:16:11;;;;;;;34.43;20.63;;;13.80;63.30;;;;;;12918921;23;20193;-81
2022/03/19 00:21:15;;;;;;;31.90;18.03;;;12.40;67.70;;;;;;12916699;23;20178;-81
2022/03/19 00:26:18;;;;;;;30.27;17.37;;;12.80;67.90;;;;;;12936761;23;20196;-81
2022/03/19 00:31:21;;;;;;;31.60;18.83;;;13.20;66.90;;;;;;12918773;23;20570;-81
2022/03/19 00:36:23;;;;;;;28.73;17.37;;;13.70;65.40;;;;;;12916581;23;20174;-81
2022/03/19 00:41:26;;;;;;;27.60;16.87;;;13.90;65.10;;;;;;12936153;23;20190;-81
2022/03/19 00:46:28;;;;;;;31.93;18.53;;;14.00;64.60;;;;;;12918982;23;20240;-81
2022/03/19 00:51:32;;;;;;;27.80;16.87;;;13.90;64.20;;;;;;12916097;23;20221;-81
2022/03/19 00:56:36;;;;;;;36.80;21.80;;;13.80;64.90;;;;;;12935293;23;20167;-81
2022/03/19 01:01:38;;;;;;;28.83;17.73;;;13.90;63.30;;;;;;12933862;23;20190;-81
2022/03/19 01:06:41;;;;;;;34.33;19.20;;;14.10;63.90;;;;;;12916341;23;20236;-81
2022/03/19 01:11:43;;;;;;;35.77;20.17;;;14.30;63.20;;;;;;12915771;23;20521;-81
2022/03/19 01:16:46;;;;;;;27.93;16.73;;;14.00;63.20;;;;;;12917668;22;20513;-81
2022/03/19 01:21:48;;;;;;;30.33;19.00;;;14.10;63.50;;;;;;12915823;23;20715;-81
2022/03/19 01:26:51;;;;;;;30.87;18.93;;;14.30;62.80;;;;;;12890368;23;20170;-81
2022/03/19 01:31:53;;;;;;;33.70;18.93;;;14.20;62.90;;;;;;12917449;23;20170;-81
2022/03/19 01:36:55;;;;;;;33.57;20.03;;;14.20;62.60;;;;;;12917485;23;20174;-81
2022/03/19 01:41:58;;;;;;;31.53;19.77;;;14.10;61.90;;;;;;12915203;23;20198;-81
2022/03/19 01:47:10;;;;;;;29.10;16.70;;;14.10;62.80;;;;;;12916339;23;20202;-81
2022/03/19 01:52:13;;;;;;;31.53;18.63;;;13.90;63.50;;;;;;12934482;23;20213;-81
2022/03/19 01:57:25;;;;;;;36.53;20.47;;;14.20;62.20;;;;;;12916730;23;20257;-81
2022/03/19 02:02:28;;;;;;;26.13;17.47;;;13.90;61.90;;;;;;12934969;23;20186;-81
2022/03/19 02:07:31;;;;;;;28.00;18.13;;;13.80;63.30;;;;;;12917259;23;20162;-81
2022/03/19 02:12:34;;;;;;;39.37;23.87;;;13.70;63.00;;;;;;12889864;23;20178;-81
2022/03/19 02:17:36;;;;;;;33.40;20.43;;;13.80;62.10;;;;;;12916445;23;20178;-81
2022/03/19 02:22:40;;;;;;;25.97;17.17;;;13.30;63.50;;;;;;12916397;23;20468;-81
2022/03/19 02:27:44;;;;;;;37.57;21.53;;;13.10;65.20;;;;;;12916114;23;20239;-81
2022/03/19 02:32:49;;;;;;;45.57;26.83;;;13.50;63.50;;;;;;12916778;23;20229;-81
2022/03/19 02:37:52;;;;;;;27.90;17.50;;;13.10;63.80;;;;;;12915245;23;20649;-81
2022/03/19 02:42:56;;;;;;;28.87;18.53;;;13.20;64.90;;;;;;12916564;23;20233;-81
2022/03/19 02:47:58;;;;;;;44.03;25.53;;;13.40;64.40;;;;;;12916311;23;20191;-81
2022/03/19 02:53:08;;;;;;;33.30;20.90;;;13.00;63.70;;;;;;12914665;23;20171;-81
2022/03/19 02:58:11;;;;;;;31.70;18.40;;;13.50;64.80;;;;;;12932332;23;20171;-81
2022/03/19 03:03:13;;;;;;;32.60;19.47;;;13.40;63.90;;;;;;12917058;23;20187;-81
2022/03/19 03:08:17;;;;;;;34.20;21.03;;;13.70;64.00;;;;;;12918137;23;20186;-81
2022/03/19 03:13:19;;;;;;;28.93;18.53;;;13.50;64.00;;;;;;12938199;23;20170;-81
2022/03/19 03:18:22;;;;;;;51.50;28.07;;;13.00;63.90;;;;;;12919901;23;20174;-81
2022/03/19 03:23:26;;;;;;;33.83;20.17;;;13.30;62.70;;;;;;12919083;23;20186;-81
2022/03/19 03:28:28;;;;;;;27.23;18.00;;;13.30;64.30;;;;;;12936269;23;20625;-81
2022/03/19 03:33:31;;;;;;;26.80;18.13;;;13.30;64.10;;;;;;12919298;23;20170;-81
2022/03/19 03:38:33;;;;;;;32.00;20.20;;;13.30;64.10;;;;;;12893066;23;20175;-81
2022/03/19 03:43:36;;;;;;;33.10;21.37;;;13.50;64.00;;;;;;12917134;23;20256;-81
2022/03/19 03:48:40;;;;;;;26.10;17.47;;;13.20;64.00;;;;;;12918922;23;20162;-81
2022/03/19 03:53:45;;;;;;;27.27;17.20;;;13.20;64.90;;;;;;12918586;23;20642;-81
2022/03/19 03:58:48;;;;;;;27.27;16.87;;;13.50;64.30;;;;;;12917013;23;20487;-81
2022/03/19 04:03:51;;;;;;;34.07;19.80;;;13.60;63.90;;;;;;12932150;23;20236;-81
2022/03/19 04:08:53;;;;;;;26.90;17.90;;;13.10;64.10;;;;;;12917525;23;20171;-81
2022/03/19 04:13:56;;;;;;;31.37;20.07;;;12.90;65.30;;;;;;12936968;23;20171;-81
2022/03/19 04:18:58;;;;;;;29.43;18.13;;;12.80;65.40;;;;;;12916805;23;20243;-81
2022/03/19 04:24:00;;;;;;;30.77;18.23;;;13.30;65.00;;;;;;12918213;23;20252;-81
2022/03/19 04:29:03;;;;;;;25.57;16.13;;;13.50;64.10;;;;;;12934114;23;20565;-82
2022/03/19 04:34:05;;;;;;;33.67;18.60;;;13.80;63.50;;;;;;12918101;23;20630;-81
2022/03/19 04:39:08;;;;;;;28.03;17.63;;;13.60;63.80;;;;;;12916606;23;20502;-81
2022/03/19 04:44:11;;;;;;;25.03;15.60;;;13.60;63.90;;;;;;12917589;23;20194;-81
2022/03/19 04:49:13;;;;;;;27.83;16.97;;;13.50;64.10;;;;;;12916156;23;20176;-81
2022/03/19 04:54:17;;;;;;;29.90;16.30;;;13.50;64.00;;;;;;12916963;23;20232;-81
2022/03/19 04:59:20;;;;;;;23.43;15.33;;;13.30;64.40;;;;;;12934159;23;20519;-81
2022/03/19 05:04:23;;;;;;;23.87;15.70;;;13.10;64.60;;;;;;12917614;23;20190;-81
2022/03/19 05:14:46;;;;;;;26.83;13.73;;;13.50;64.70;;;;;;12917717;23;20216;-81
2022/03/19 05:19:48;;;;;;;22.73;13.60;;;12.80;63.30;;;;;;12925575;23;20171;-81
2022/03/19 05:24:51;;;;;;;25.27;14.47;;;12.20;65.90;;;;;;12914693;23;20175;-81
2022/03/19 05:29:53;;;;;;;24.20;13.27;;;12.20;67.80;;;;;;12935385;23;20228;-81
2022/03/19 05:34:56;;;;;;;21.27;12.50;;;9.10;73.90;;;;;;12916170;23;20630;-81
2022/03/19 05:40:04;;;;;;;20.33;11.73;;;8.90;76.00;;;;;;12915619;23;20498;-81
2022/03/19 05:45:09;;;;;;;22.10;11.87;;;8.00;83.20;;;;;;12928484;23;20250;-81
2022/03/19 05:50:13;;;;;;;18.93;11.83;;;6.00;93.70;;;;;;12916080;23;20171;-81
2022/03/19 05:55:15;;;;;;;23.00;11.97;;;7.00;93.30;;;;;;12916773;23;20162;-81
2022/03/19 06:00:18;;;;;;;19.97;11.07;;;6.40;92.50;;;;;;12916095;23;20186;-81
2022/03/19 06:05:20;;;;;;;19.63;12.53;;;6.60;93.80;;;;;;12914588;23;20178;-81
2022/03/19 06:10:23;;;;;;;22.43;13.60;;;8.50;91.40;;;;;;12916351;23;20587;-81
2022/03/19 06:15:26;;;;;;;22.93;13.10;;;8.20;89.10;;;;;;12914566;23;20227;-81
2022/03/19 06:20:28;;;;;;;22.47;13.00;;;10.60;80.00;;;;;;12915480;23;20656;-81
2022/03/19 06:25:31;;;;;;;20.17;12.80;;;10.40;79.60;;;;;;12914619;23;20501;-81
2022/03/19 06:30:37;;;;;;;22.70;13.67;;;10.20;78.20;;;;;;12914674;23;20178;-81
2022/03/19 06:41:02;;;;;;;18.63;13.03;;;9.80;78.30;;;;;;12936366;23;20508;-81
2022/03/19 06:46:05;;;;;;;22.53;13.77;;;9.60;81.80;;;;;;12918411;23;20197;-81
2022/03/19 06:51:08;;;;;;;23.43;16.37;;;10.70;76.50;;;;;;12917722;23;20243;-81
2022/03/19 06:56:12;;;;;;;22.43;13.33;;;10.70;77.20;;;;;;12893090;23;20208;-81
2022/03/19 07:01:15;;;;;;;29.90;18.07;;;12.00;72.70;;;;;;12920312;23;20243;-81
2022/03/19 07:06:19;;;;;;;37.67;18.33;;;9.70;76.20;;;;;;12920004;23;20173;-81
2022/03/19 07:11:41;;;;;;;18.70;12.00;;;9.20;79.60;;;;;;12918221;23;20177;-81
2022/03/19 07:16:44;;;;;;;17.33;12.43;;;11.50;76.00;;;;;;12914114;23;20176;-81
2022/03/19 07:21:47;;;;;;;18.10;12.00;;;13.60;68.20;;;;;;12916386;23;20212;-82
2022/03/19 07:26:49;;;;;;;26.23;18.07;;;13.80;67.40;;;;;;12916747;23;20633;-81
2022/03/19 07:31:51;;;;;;;26.50;17.40;;;13.60;65.40;;;;;;12935118;23;20221;-81
2022/03/19 07:36:54;;;;;;;23.67;13.97;;;13.20;64.90;;;;;;12891131;23;20236;-81
2022/03/19 07:41:56;;;;;;;35.53;22.53;;;14.10;62.20;;;;;;12935739;23;20244;-81
2022/03/19 07:47:01;;;;;;;45.97;29.60;;;13.20;63.30;;;;;;12917519;23;20256;-81
2022/03/19 07:52:05;;;;;;;18.57;12.23;;;10.60;63.50;;;;;;12916124;23;20634;-81
2022/03/19 07:57:10;;;;;;;24.10;14.93;;;12.50;68.10;;;;;;12916777;23;20517;-80
2022/03/19 08:02:12;;;;;;;25.47;16.20;;;13.90;63.70;;;;;;12919414;23;20194;-79
2022/03/19 08:07:15;;;;;;;42.70;24.53;;;14.60;62.60;;;;;;12915807;23;20232;-81
2022/03/19 08:12:17;;;;;;;43.60;24.77;;;13.70;56.70;;;;;;12918033;23;20174;-82
2022/03/19 08:17:20;;;;;;;44.83;26.57;;;10.90;66.50;;;;;;12918220;23;20178;-80
2022/03/19 08:22:23;;;;;;;44.00;27.63;;;12.40;58.10;;;;;;12916576;23;20239;-80
2022/03/19 08:27:26;;;;;;;46.70;27.00;;;13.80;52.30;;;;;;12918661;23;20215;-80
2022/03/19 08:32:29;;;;;;;42.97;27.37;;;14.20;52.10;;;;;;12916881;23;20174;-80
2022/03/19 08:37:32;;;;;;;51.13;30.77;;;13.90;51.60;;;;;;12918654;23;20220;-80
2022/03/19 08:42:36;;;;;;;44.97;27.93;;;11.00;53.00;;;;;;12936873;23;20194;-80
2022/03/19 08:47:38;;;;;;;43.67;25.67;;;11.20;53.90;;;;;;12917444;23;20262;-80
2022/03/19 08:52:41;;;;;;;39.27;23.87;;;12.80;54.40;;;;;;12916121;23;20174;-80
2022/03/19 08:57:44;;;;;;;50.00;29.10;;;13.10;55.50;;;;;;12891733;23;20521;-80
2022/03/19 09:02:46;;;;;;;46.17;24.90;;;11.40;47.60;;;;;;12917304;22;20194;-80
2022/03/19 09:07:49;;;;;;;42.77;26.23;;;12.90;54.30;;;;;;12916574;23;20193;-80
2022/03/19 09:12:52;;;;;;;39.70;22.17;;;13.50;53.50;;;;;;12935134;23;20441;-80
2022/03/19 09:17:54;;;;;;;40.80;26.67;;;13.90;54.90;;;;;;12916382;23;20167;-80
2022/03/19 09:22:57;;;;;;;41.43;25.27;;;14.00;41.50;;;;;;12934787;23;20489;-80
2022/03/19 09:27:59;;;;;;;35.60;22.87;;;14.20;50.80;;;;;;12916102;23;20633;-80
2022/03/19 09:33:02;;;;;;;39.53;21.10;;;13.70;44.50;;;;;;12915487;23;20575;-80
2022/03/19 09:38:19;;;;;;;34.40;20.50;;;13.50;52.80;;;;;;12915079;23;20235;-80
2022/03/19 09:43:27;;;;;;;33.03;20.40;;;14.70;54.50;;;;;;12930149;23;20198;-80
2022/03/19 09:48:29;;;;;;;29.57;20.30;;;15.20;50.10;;;;;;12934161;23;20269;-80
2022/03/19 09:53:33;;;;;;;32.53;19.37;;;14.60;54.10;;;;;;12915653;23;20220;-80
2022/03/19 09:58:55;;;;;;;37.13;18.90;;;15.00;52.80;;;;;;12894562;23;20232;-80
2022/03/19 10:04:07;;;;;;;29.40;18.67;;;14.70;53.30;;;;;;12915209;23;20187;-80
2022/03/19 10:09:17;;;;;;;30.03;19.30;;;14.60;53.90;;;;;;12915376;23;20551;-80
2022/03/19 10:14:23;;;;;;;28.83;19.03;;;14.90;54.00;;;;;;12934521;23;20174;-80
2022/03/19 10:19:25;;;;;;;26.03;18.17;;;14.80;53.20;;;;;;12914910;23;20657;-80
2022/03/19 10:24:28;;;;;;;29.23;17.63;;;14.80;54.60;;;;;;12934454;23;20216;-80
2022/03/19 10:29:33;;;;;;;29.00;18.90;;;15.00;54.30;;;;;;12916701;23;20220;-80
2022/03/19 10:34:40;;;;;;;27.17;17.10;;;15.00;53.40;;;;;;12927586;23;20550;-80
2022/03/19 10:39:48;;;;;;;32.47;18.27;;;14.70;54.20;;;;;;12933214;23;20640;-80
2022/03/19 10:44:52;;;;;;;33.23;18.60;;;14.90;53.40;;;;;;12928050;23;20194;-80
2022/03/19 10:50:01;;;;;;;33.20;19.57;;;14.60;45.20;;;;;;12925896;23;20167;-80
2022/03/19 10:55:07;;;;;;;28.90;16.53;;;14.30;51.70;;;;;;12932281;23;20170;-80
2022/03/19 11:00:10;;;;;;;30.20;17.53;;;14.40;53.70;;;;;;12914757;23;20178;-80
2022/03/19 11:05:16;;;;;;;25.03;15.87;;;14.90;50.60;;;;;;12916215;23;20186;-80
2022/03/19 11:10:19;;;;;;;50.75;20.23;;;14.90;52.80;;;;;;12887504;23;20400;-81
2022/03/19 11:15:21;;;;;;;30.07;15.60;;;14.50;49.90;;;;;;12913775;22;20198;-80
2022/03/19 11:20:24;;;;;;;46.20;16.90;;;15.50;50.70;;;;;;12887229;22;20590;-81
2022/03/19 11:25:27;;;;;;;39.40;16.77;;;16.40;43.00;;;;;;12915372;23;20606;-78
2022/03/19 11:30:31;;;;;;;24.97;15.07;;;;;;;;;;12892839;23;20506;-78
2022/03/19 11:35:39;;;;;;;24.07;13.53;;;16.60;46.20;;;;;;12893083;23;20564;-78
2022/03/19 11:40:45;;;;;;;34.27;16.93;;;17.10;49.00;;;;;;12911525;23;20172;-78
2022/03/19 11:46:00;;;;;;;23.07;16.10;;;16.60;38.80;;;;;;12937191;23;20536;-78
2022/03/19 11:51:17;;;;;;;20.13;13.77;;;16.10;39.00;;;;;;12925706;23;20167;-78
2022/03/19 11:56:25;;;;;;;20.67;11.90;;;14.40;52.60;;;;;;12911646;23;20162;-78
2022/03/19 12:01:47;;;;;;;24.00;17.30;;;15.90;45.80;;;;;;12889977;23;20174;-80
2022/03/19 12:06:53;;;;;;;20.30;12.60;;;14.10;43.60;;;;;;12919080;23;20174;-80
2022/03/19 12:12:13;;;;;;;21.17;13.63;;;15.90;48.20;;;;;;12915061;23;20174;-79
2022/03/19 12:17:28;;;;;;;19.93;14.03;;;15.80;38.40;;;;;;12889654;23;20550;-79
2022/03/19 12:22:39;;;;;;;26.37;12.73;;;12.40;43.90;;;;;;12914161;23;20669;-82
2022/03/19 12:27:42;;;;;;;21.13;13.37;;;15.30;47.20;;;;;;12890399;23;20174;-80
2022/03/19 12:32:49;;;;;;;23.83;15.33;;;16.20;42.80;;;;;;12912946;23;20408;-80
2022/03/19 12:37:56;;;;;;;17.87;13.50;;;15.90;39.50;;;;;;12935284;23;20200;-81
2022/03/19 12:42:59;;;;;;;26.73;13.60;;;15.70;38.50;;;;;;12935520;23;20187;-81
2022/03/19 12:48:31;;;;;;;20.17;13.10;;;15.80;39.00;;;;;;12932937;23;20232;-83
2022/03/19 12:53:38;;;;;;;21.60;13.03;;;16.00;39.70;;;;;;12916028;23;20166;-83
2022/03/19 12:58:44;;;;;;;16.77;12.07;;;15.30;37.10;;;;;;12915605;23;20641;-83
2022/03/19 13:03:47;;;;;;;18.67;13.07;;;15.40;39.50;;;;;;12931939;23;20190;-84
2022/03/19 13:08:50;;;;;;;20.53;12.50;;;14.70;38.80;;;;;;12915846;23;20166;-83
2022/03/19 13:13:53;;;;;;;15.60;11.70;;;15.50;38.90;;;;;;12917241;23;20517;-83
2022/03/19 13:19:03;;;;;;;22.43;11.83;;;15.40;38.70;;;;;;12916852;22;20602;-83
2022/03/19 13:24:10;;;;;;;21.03;13.03;;;14.80;36.30;;;;;;12934788;23;20190;-83
2022/03/19 13:29:18;;;;;;;19.73;11.30;;;14.90;38.90;;;;;;12915315;23;20487;-83
2022/03/19 13:34:28;;;;;;;20.50;11.73;;;14.20;37.60;;;;;;12931099;23;20174;-83
2022/03/19 13:39:41;;;;;;;19.23;11.73;;;14.60;35.80;;;;;;12934201;23;20225;-83
2022/03/19 13:45:01;;;;;;;20.43;10.73;;;14.90;35.00;;;;;;12915221;23;20198;-83
2022/03/19 13:50:07;;;;;;;19.47;11.47;;;14.70;35.20;;;;;;12927746;23;20228;-83
2022/03/19 13:55:20;;;;;;;11.43;9.53;;;14.50;34.80;;;;;;12932907;23;20224;-81
2022/03/19 14:00:29;;;;;;;16.37;10.13;;;13.90;38.30;;;;;;12930595;23;20224;-80
2022/03/19 14:05:36;;;;;;;13.10;9.67;;;15.20;38.80;;;;;;12923850;23;20645;-82
2022/03/19 14:10:40;;;;;;;16.50;9.50;;;16.00;38.80;;;;;;12914951;23;20225;-82
2022/03/19 14:15:50;;;;;;;14.10;9.03;;;16.50;38.80;;;;;;12889454;23;20235;-81
2022/03/19 14:20:54;;;;;;;19.70;9.73;;;16.70;38.90;;;;;;12918409;23;20221;-80
2022/03/19 14:25:56;;;;;;;12.50;9.40;;;16.70;36.30;;;;;;12914789;23;20573;-79
2022/03/19 14:30:59;;;;;;;15.80;8.43;;;16.50;39.30;;;;;;12933272;23;20213;-79
2022/03/19 14:36:04;;;;;;;20.33;10.00;;;16.90;40.10;;;;;;12915151;23;20174;-79
2022/03/19 14:41:16;;;;;;;12.40;7.83;;;16.30;39.10;;;;;;12913594;23;20177;-79
2022/03/19 14:46:19;;;;;;;12.57;7.90;;;16.50;41.20;;;;;;12889080;23;20762;-79
2022/03/19 14:51:24;;;;;;;24.13;13.97;;;;;;;;;;12915502;23;20167;-80
2022/03/19 14:56:27;;;;;;;18.47;13.50;;;15.50;33.80;;;;;;12913540;23;20523;-80
2022/03/19 15:01:30;;;;;;;20.63;14.43;;;15.70;34.80;;;;;;12918331;23;20166;-79
2022/03/19 15:06:33;;;;;;;21.13;12.63;;;16.10;36.00;;;;;;12919505;23;20217;-79
2022/03/19 15:11:35;;;;;;;17.23;12.20;;;15.80;37.00;;;;;;12919219;23;20167;-78
2022/03/19 15:16:38;;;;;;;20.80;13.03;;;15.80;37.00;;;;;;12919405;23;20219;-79
2022/03/19 15:21:41;;;;;;;18.03;11.70;;;15.70;37.10;;;;;;12917066;23;20703;-80
2022/03/19 15:26:43;;;;;;;29.43;12.20;;;16.40;37.60;;;;;;12917924;23;20197;-80
2022/03/19 15:31:45;;;;;;;21.83;13.53;;;15.90;39.20;;;;;;12913450;23;20440;-80
2022/03/19 15:36:48;;;;;;;16.40;11.87;;;15.50;36.50;;;;;;12913739;23;20174;-79
2022/03/19 15:41:51;;;;;;;19.93;13.67;;;16.20;38.60;;;;;;12913984;23;20170;-80
2022/03/19 15:46:53;;;;;;;24.13;13.40;;;14.90;37.60;;;;;;12913319;23;20922;-80
2022/03/19 15:51:56;;;;;;;14.17;9.70;;;15.50;36.10;;;;;;12913193;22;20178;-79
2022/03/19 15:56:58;;;;;;;21.67;13.70;;;15.70;41.40;;;;;;12931144;23;20220;-79
2022/03/19 16:02:01;;;;;;;15.77;9.77;;;15.40;39.70;;;;;;12913410;23;20170;-78
2022/03/19 16:07:04;;;;;;;15.10;8.93;;;15.50;42.10;;;;;;12910666;23;20194;-79
2022/03/19 16:12:07;;;;;;;14.73;10.70;;;15.60;42.10;;;;;;12911298;23;20313;-79
2022/03/19 16:17:09;;;;;;;13.50;8.93;;;15.50;41.50;;;;;;12911577;23;20190;-79
2022/03/19 16:22:12;;;;;;;21.47;11.27;;;15.60;42.50;;;;;;12913551;23;20454;-79
2022/03/19 16:27:15;;;;;;;14.47;8.40;;;15.00;41.70;;;;;;12930223;23;20657;-79
2022/03/19 16:32:17;;;;;;;13.43;9.40;;;15.30;42.80;;;;;;12912761;23;20163;-79
2022/03/19 16:37:21;;;;;;;10.30;8.03;;;15.50;44.30;;;;;;12915022;23;20281;-79
2022/03/19 16:42:24;;;;;;;12.30;8.83;;;14.60;46.50;;;;;;12934181;23;20692;-81
2022/03/19 16:47:27;;;;;;;18.20;11.97;;;12.90;53.40;;;;;;12917719;23;20190;-80
2022/03/19 16:52:29;;;;;;;26.17;14.07;;;15.10;40.30;;;;;;12917780;23;20564;-81
2022/03/19 16:57:32;;;;;;;19.40;12.20;;;13.90;37.30;;;;;;12917421;23;20162;-80
2022/03/19 17:02:35;;;;;;;28.13;12.20;;;13.60;36.20;;;;;;12914679;23;20175;-79
2022/03/19 17:07:39;;;;;;;18.00;11.47;;;12.70;36.30;;;;;;12915340;23;20204;-79
2022/03/19 17:12:44;;;;;;;23.17;15.17;;;8.60;40.30;;;;;;12914893;23;20224;-82
2022/03/19 17:17:47;;;;;;;25.20;15.30;;;7.70;50.50;;;;;;12915429;23;20194;-79
2022/03/19 17:22:49;;;;;;;28.37;14.20;;;7.00;44.90;;;;;;12914989;23;20174;-82
2022/03/19 17:27:52;;;;;;;12.53;7.77;;;7.90;53.70;;;;;;12917333;23;20572;-79
2022/03/19 17:32:54;;;;;;;20.97;8.97;;;11.00;68.50;;;;;;12918521;23;20164;-81
2022/03/19 17:37:57;;;;;;;13.20;7.90;;;12.90;60.70;;;;;;12918487;23;20174;-79
2022/03/19 17:42:59;;;;;;;16.20;9.07;;;13.40;58.60;;;;;;12918990;22;20190;-79
2022/03/19 17:48:02;;;;;;;24.00;14.10;;;13.10;58.10;;;;;;12934929;23;20166;-78
2022/03/19 17:53:05;;;;;;;25.53;12.40;;;12.50;53.40;;;;;;12918824;23;20491;-80
2022/03/19 17:58:08;;;;;;;17.83;10.10;;;12.20;46.50;;;;;;12921262;23;20216;-79
2022/03/19 18:03:10;;;;;;;12.43;8.80;;;11.40;56.40;;;;;;12920478;23;20529;-79
2022/03/19 18:08:13;;;;;;;13.83;7.43;;;11.70;58.50;;;;;;12922027;23;20178;-82
2022/03/19 18:13:16;;;;;;;15.70;10.33;;;12.70;61.40;;;;;;12927097;23;20166;-81
2022/03/19 18:18:18;;;;;;;29.37;17.97;;;13.50;57.70;;;;;;12921507;23;20649;-80
2022/03/19 18:23:21;;;;;;;13.87;7.83;;;13.40;54.70;;;;;;12939990;23;20521;-80
2022/03/19 18:28:24;;;;;;;13.10;7.10;;;13.40;59.00;;;;;;12915822;23;20174;-81
2022/03/19 18:33:26;;;;;;;17.57;9.03;;;13.30;59.10;;;;;;12935915;23;20549;-81
2022/03/19 18:38:29;;;;;;;10.70;8.10;;;12.80;58.20;;;;;;12937650;23;20168;-80
2022/03/19 18:43:31;;;;;;;222.30;97.47;;;12.80;58.60;;;;;;12920520;23;20259;-80
2022/03/19 18:48:34;;;;;;;90.03;41.87;;;11.80;54.30;;;;;;12937620;23;20560;-88
2022/03/19 18:53:36;;;;;;;60.77;26.70;;;;;;;;;;12938181;23;20170;-79
2022/03/19 18:58:39;;;;;;;45.47;21.23;;;10.60;60.50;;;;;;12922293;23;20166;-79
2022/03/19 19:03:41;;;;;;;12.70;9.27;;;11.60;60.50;;;;;;12919475;23;20560;-80
2022/03/19 19:08:44;;;;;;;31.23;17.67;;;11.70;62.50;;;;;;12883574;23;20174;-79
2022/03/19 19:13:47;;;;;;;23.50;13.43;;;11.30;53.50;;;;;;12913875;23;20170;-79
2022/03/19 19:18:49;;;;;;;18.47;11.53;;;10.90;62.30;;;;;;12913579;23;20249;-78
2022/03/19 19:23:52;;;;;;;11.30;7.70;;;11.10;61.20;;;;;;12910409;23;20256;-79
2022/03/19 19:28:56;;;;;;;22.57;12.53;;;12.00;62.10;;;;;;12912641;23;20163;-80
2022/03/19 19:33:59;;;;;;;17.00;9.20;;;12.40;57.40;;;;;;12911945;23;20174;-80
2022/03/19 19:39:02;;;;;;;23.87;13.47;;;12.40;59.90;;;;;;12912622;23;20171;-79
2022/03/19 19:44:05;;;;;;;30.27;17.00;;;12.40;57.70;;;;;;12908341;23;20248;-79
2022/03/19 19:49:07;;;;;;;14.10;9.37;;;11.40;57.80;;;;;;12909782;23;20228;-79
2022/03/19 19:54:10;;;;;;;15.20;10.17;;;10.80;64.20;;;;;;12911130;23;20611;-79
2022/03/19 19:59:13;;;;;;;13.13;9.60;;;12.20;61.20;;;;;;12910540;23;20482;-79
2022/03/19 20:04:15;;;;;;;17.30;9.17;;;12.40;60.50;;;;;;12908646;23;20670;-79
2022/03/19 20:09:18;;;;;;;20.77;9.80;;;12.90;59.50;;;;;;12909354;23;20220;-79
2022/03/19 20:14:21;;;;;;;17.77;10.20;;;13.00;59.00;;;;;;12909306;23;20502;-79
2022/03/19 20:19:23;;;;;;;15.87;10.13;;;12.80;58.80;;;;;;12910931;23;20194;-80
2022/03/19 20:24:25;;;;;;;18.37;9.70;;;12.80;58.80;;;;;;12907958;23;20248;-79
2022/03/19 20:29:28;;;;;;;14.77;9.47;;;12.50;59.60;;;;;;12910192;23;20163;-82
2022/03/19 20:34:30;;;;;;;13.97;9.27;;;12.30;60.00;;;;;;12909618;23;20568;-80
2022/03/19 20:39:33;;;;;;;21.93;14.30;;;12.60;59.70;;;;;;12911207;23;20166;-80
2022/03/19 20:44:36;;;;;;;15.90;9.23;;;12.80;56.40;;;;;;12912778;23;20260;-79
2022/03/19 20:55:12;;;;;;;16.30;9.90;;;13.00;58.70;;;;;;12910291;22;20565;-80
2022/03/19 21:00:16;;;;;;;17.43;10.63;;;13.20;58.30;;;;;;12913906;23;20555;-79
2022/03/19 21:05:24;;;;;;;14.70;8.93;;;13.50;57.00;;;;;;12915095;23;20244;-79
2022/03/19 21:10:30;;;;;;;13.13;8.53;;;13.30;57.60;;;;;;12934368;23;20221;-79
2022/03/19 21:15:33;;;;;;;21.77;11.77;;;13.30;57.90;;;;;;12914949;23;20205;-80
2022/03/19 21:20:38;;;;;;;14.80;10.67;;;13.10;57.80;;;;;;12917155;23;20194;-80
2022/03/19 21:25:41;;;;;;;16.63;11.13;;;13.00;57.30;;;;;;12917485;23;20727;-81
2022/03/19 21:30:55;;;;;;;14.80;9.27;;;13.20;57.60;;;;;;10612900;27;20546;-81
2022/03/19 21:35:57;;;;;;;14.93;9.20;;;13.20;57.90;;;;;;10610907;28;20196;-80
2022/03/19 21:41:00;;;;;;;35.27;21.73;;;12.80;58.00;;;;;;10574541;28;20224;-79
2022/03/19 21:46:03;;;;;;;18.03;10.90;;;11.50;55.70;;;;;;10607624;28;20253;-80
2022/03/19 21:51:06;;;;;;;18.40;11.93;;;11.30;62.70;;;;;;10585611;28;20232;-80
2022/03/19 21:56:09;;;;;;;14.00;9.27;;;12.50;59.90;;;;;;10599380;28;20255;-80
2022/03/19 22:01:12;;;;;;;16.67;9.90;;;13.50;57.70;;;;;;10582863;28;20227;-80
2022/03/19 22:06:15;;;;;;;14.93;9.53;;;;;;;;;;10568303;28;20297;-80
2022/03/19 22:11:17;;;;;;;13.33;9.43;;;14.00;55.80;;;;;;10605010;28;20216;-80
2022/03/19 22:16:20;;;;;;;14.33;9.37;;;14.30;55.70;;;;;;10608372;27;20227;-80
2022/03/19 22:21:23;;;;;;;13.43;9.37;;;14.50;55.10;;;;;;10607810;28;20232;-81
2022/03/19 22:26:25;;;;;;;14.40;9.10;;;14.70;54.60;;;;;;10596375;28;20251;-80
2022/03/19 22:31:28;;;;;;;12.37;8.47;;;14.80;54.30;;;;;;10595649;28;20221;-80
2022/03/19 22:36:33;;;;;;;12.87;9.60;;;14.90;54.00;;;;;;10601129;28;20244;-80
2022/03/19 22:41:35;;;;;;;12.40;9.10;;;14.90;54.00;;;;;;10524398;22;20274;-84
2022/03/19 22:46:38;;;;;;;14.60;10.03;;;14.80;54.30;;;;;;10456705;28;20318;-83
2022/03/19 22:51:44;;;;;;;12.33;8.67;;;14.70;53.80;;;;;;10484280;22;20264;-81
2022/03/19 22:56:46;;;;;;;13.70;9.80;;;14.70;54.10;;;;;;10495434;28;20250;-80
2022/03/19 23:01:49;;;;;;;12.13;9.17;;;14.60;54.30;;;;;;10496660;28;20272;-80
2022/03/19 23:06:51;;;;;;;14.63;9.63;;;14.50;54.40;;;;;;10496134;28;20254;-80
2022/03/19 23:11:54;;;;;;;15.13;10.07;;;14.30;54.60;;;;;;10477610;28;20754;-80
2022/03/19 23:16:57;;;;;;;15.13;10.70;;;14.20;55.00;;;;;;10478608;28;20230;-80
2022/03/19 23:22:00;;;;;;;16.47;10.93;;;14.20;55.00;;;;;;10494910;28;20230;-80
2022/03/19 23:27:03;;;;;;;14.00;9.27;;;13.90;55.20;;;;;;10495804;28;20299;-80
2022/03/19 23:32:06;;;;;;;17.33;10.50;;;14.10;55.10;;;;;;10495632;28;20238;-80
2022/03/19 23:37:09;;;;;;;15.03;9.80;;;14.20;54.70;;;;;;10494536;28;20246;-80
2022/03/19 23:42:11;;;;;;;16.90;9.43;;;14.10;55.10;;;;;;10494679;28;20303;-80
2022/03/19 23:47:14;;;;;;;11.27;8.63;;;14.10;55.30;;;;;;10494540;28;20284;-80
2022/03/19 23:52:17;;;;;;;16.97;10.17;;;14.10;55.10;;;;;;10491185;28;20254;-80
2022/03/19 23:57:38;;;;;;;15.63;10.77;;;14.30;54.90;;;;;;10493807;28;20234;-80
